createdAt,value
2018-01-25T00:00:50.524Z,12.62
2018-01-25T00:02:43.209Z,12.67
2018-01-25T00:03:43.174Z,12.64
2018-01-25T00:05:36.260Z,12.62
2018-01-25T00:06:36.059Z,12.65
2018-01-25T00:08:29.028Z,12.60
2018-01-25T00:09:28.998Z,12.65
2018-01-25T00:11:21.983Z,12.58
2018-01-25T00:12:21.962Z,12.65
2018-01-25T00:14:14.740Z,12.67
2018-01-25T00:15:14.703Z,12.65
2018-01-25T00:17:07.768Z,12.64
2018-01-25T00:18:07.698Z,12.50
2018-01-25T00:20:00.504Z,12.50
2018-01-25T00:21:00.475Z,12.54
2018-01-25T00:22:53.648Z,12.57
2018-01-25T00:23:53.595Z,12.58
2018-01-25T00:25:46.513Z,12.50
2018-01-25T00:26:46.399Z,12.43
2018-01-25T00:28:39.364Z,12.25
2018-01-25T00:29:39.335Z,12.25
2018-01-25T00:31:32.303Z,12.00
2018-01-25T00:32:32.268Z,11.95
2018-01-25T00:34:25.055Z,11.91
2018-01-25T00:35:25.033Z,11.86
2018-01-25T00:37:17.944Z,11.80
2018-01-25T00:38:17.830Z,11.80
2018-01-25T00:40:10.785Z,11.72
2018-01-25T00:41:10.747Z,11.69
2018-01-25T00:43:03.738Z,11.68
2018-01-25T00:44:03.768Z,11.65
2018-01-25T00:45:56.919Z,11.59
2018-01-25T00:46:56.858Z,11.59
2018-01-25T00:48:49.852Z,11.48
2018-01-25T00:49:49.802Z,11.62
2018-01-25T00:51:42.598Z,11.41
2018-01-25T00:52:42.575Z,11.43
2018-01-25T00:54:35.759Z,11.47
2018-01-25T00:55:35.687Z,11.48
2018-01-25T00:57:28.650Z,11.48
2018-01-25T00:58:28.611Z,11.40
2018-01-25T01:00:21.639Z,11.33
2018-01-25T01:01:21.588Z,11.29
2018-01-25T01:03:14.408Z,11.25
2018-01-25T01:04:14.363Z,11.22
2018-01-25T01:06:07.350Z,11.25
2018-01-25T01:07:07.276Z,11.23
2018-01-25T01:09:00.239Z,11.18
2018-01-25T01:10:00.203Z,11.22
2018-01-25T01:11:53.419Z,11.19
2018-01-25T01:12:53.275Z,11.17
2018-01-25T01:14:46.147Z,11.22
2018-01-25T01:15:46.040Z,11.18
2018-01-25T01:17:39.004Z,11.17
2018-01-25T01:18:38.964Z,11.14
2018-01-25T01:20:31.993Z,11.12
2018-01-25T01:21:31.943Z,11.11
2018-01-25T01:23:25.064Z,11.19
2018-01-25T01:24:24.976Z,11.25
2018-01-25T01:26:17.932Z,11.22
2018-01-25T01:27:17.869Z,11.12
2018-01-25T01:29:10.847Z,11.22
2018-01-25T01:30:10.784Z,11.22
2018-01-25T01:32:04.216Z,11.10
2018-01-25T01:33:03.620Z,10.94
2018-01-25T01:34:56.600Z,10.54
2018-01-25T01:35:56.538Z,10.49
2018-01-25T01:37:49.525Z,10.13
2018-01-25T01:38:49.479Z,10.13
2018-01-25T01:40:42.657Z,9.94
2018-01-25T01:41:42.587Z,9.94
2018-01-25T01:43:35.560Z,9.97
2018-01-25T01:44:35.504Z,9.89
2018-01-25T01:46:28.439Z,9.89
2018-01-25T01:47:28.404Z,9.86
2018-01-25T01:49:21.548Z,9.84
2018-01-25T01:50:21.335Z,9.74
2018-01-25T01:52:14.187Z,9.80
2018-01-25T01:53:14.123Z,9.72
2018-01-25T01:55:07.064Z,9.68
2018-01-25T01:56:07.039Z,9.72
2018-01-25T01:57:59.847Z,9.56
2018-01-25T01:58:59.843Z,9.55
2018-01-25T02:00:52.958Z,9.58
2018-01-25T02:01:52.900Z,9.58
2018-01-25T02:03:45.718Z,9.44
2018-01-25T02:04:45.670Z,9.47
2018-01-25T02:06:38.794Z,9.44
2018-01-25T02:07:38.768Z,9.47
2018-01-25T02:09:32.193Z,9.43
2018-01-25T02:10:31.845Z,9.37
2018-01-25T02:12:24.828Z,9.31
2018-01-25T02:13:24.830Z,9.34
2018-01-25T02:15:17.776Z,9.26
2018-01-25T02:16:17.714Z,9.22
2018-01-25T02:18:10.534Z,9.16
2018-01-25T02:19:10.488Z,9.13
2018-01-25T02:21:03.473Z,9.08
2018-01-25T02:22:03.405Z,9.13
2018-01-25T02:23:56.399Z,9.11
2018-01-25T02:24:56.330Z,9.06
2018-01-25T02:26:49.589Z,9.04
2018-01-25T02:27:49.450Z,9.08
2018-01-25T02:29:42.414Z,9.03
2018-01-25T02:30:42.381Z,9.04
2018-01-25T02:32:35.213Z,8.89
2018-01-25T02:33:35.160Z,8.92
2018-01-25T02:35:28.399Z,9.08
2018-01-25T02:36:28.278Z,9.02
2018-01-25T02:38:21.264Z,8.94
2018-01-25T02:39:21.188Z,8.88
2018-01-25T02:41:14.176Z,8.85
2018-01-25T02:42:14.120Z,8.87
2018-01-25T02:44:07.273Z,8.88
2018-01-25T02:45:07.237Z,8.85
2018-01-25T02:47:00.232Z,8.95
2018-01-25T02:48:00.165Z,8.89
2018-01-25T02:49:53.104Z,9.00
2018-01-25T02:50:53.057Z,8.82
2018-01-25T02:52:45.890Z,8.81
2018-01-25T02:53:45.824Z,8.91
2018-01-25T02:55:38.798Z,8.87
2018-01-25T02:56:38.763Z,8.89
2018-01-25T02:58:31.758Z,8.88
2018-01-25T02:59:31.684Z,8.88
2018-01-25T03:01:24.499Z,8.92
2018-01-25T03:02:24.510Z,8.95
2018-01-25T03:04:17.277Z,8.94
2018-01-25T03:05:17.223Z,8.84
2018-01-25T03:07:10.283Z,8.99
2018-01-25T03:08:10.070Z,8.89
2018-01-25T03:10:03.049Z,8.87
2018-01-25T03:11:02.993Z,8.79
2018-01-25T03:12:55.982Z,8.88
2018-01-25T03:13:55.923Z,8.84
2018-01-25T03:15:49.159Z,8.79
2018-01-25T03:16:49.055Z,8.81
2018-01-25T03:18:42.050Z,8.79
2018-01-25T03:19:41.999Z,8.70
2018-01-25T03:21:34.955Z,8.74
2018-01-25T03:22:34.912Z,8.67
2018-01-25T03:24:27.817Z,8.69
2018-01-25T03:25:27.739Z,8.67
2018-01-25T03:27:20.685Z,8.70
2018-01-25T03:28:20.646Z,8.76
2018-01-25T03:30:13.621Z,8.71
2018-01-25T03:31:13.568Z,8.67
2018-01-25T03:33:06.841Z,8.74
2018-01-25T03:34:06.711Z,8.78
2018-01-25T03:35:59.524Z,8.66
2018-01-25T03:36:59.490Z,8.66
2018-01-25T03:38:52.280Z,8.70
2018-01-25T03:39:52.236Z,8.73
2018-01-25T03:41:45.069Z,8.78
2018-01-25T03:42:45.039Z,8.87
2018-01-25T03:44:38.131Z,8.76
2018-01-25T03:45:38.086Z,8.73
2018-01-25T03:47:31.060Z,8.73
2018-01-25T03:48:30.995Z,8.70
2018-01-25T03:50:23.821Z,8.74
2018-01-25T03:51:23.764Z,8.79
2018-01-25T03:53:16.758Z,8.71
2018-01-25T03:54:16.716Z,8.56
2018-01-25T03:56:10.139Z,8.60
2018-01-25T03:57:09.584Z,8.63
2018-01-25T03:59:02.538Z,8.53
2018-01-25T04:00:02.504Z,8.53
2018-01-25T04:01:55.543Z,8.55
2018-01-25T04:02:55.505Z,8.53
2018-01-25T04:04:48.585Z,8.49
2018-01-25T04:05:48.504Z,8.49
2018-01-25T04:07:41.500Z,8.48
2018-01-25T04:08:41.435Z,8.51
2018-01-25T04:10:34.398Z,8.45
2018-01-25T04:11:34.365Z,8.46
2018-01-25T04:13:27.236Z,8.45
2018-01-25T04:14:27.165Z,8.42
2018-01-25T04:16:20.176Z,8.41
2018-01-25T04:17:20.100Z,8.38
2018-01-25T04:19:13.080Z,8.36
2018-01-25T04:20:13.041Z,8.37
2018-01-25T04:22:06.028Z,8.37
2018-01-25T04:23:06.006Z,8.34
2018-01-25T04:24:58.995Z,8.30
2018-01-25T04:25:58.799Z,8.33
2018-01-25T04:27:51.645Z,8.36
2018-01-25T04:28:51.553Z,8.24
2018-01-25T04:30:44.511Z,8.26
2018-01-25T04:31:44.485Z,8.12
2018-01-25T04:33:37.295Z,8.23
2018-01-25T04:34:37.312Z,8.23
2018-01-25T04:36:30.068Z,8.20
2018-01-25T04:37:30.024Z,8.28
2018-01-25T04:39:22.845Z,8.19
2018-01-25T04:40:22.794Z,8.19
2018-01-25T04:42:15.664Z,8.20
2018-01-25T04:43:15.576Z,8.12
2018-01-25T04:45:08.375Z,8.20
2018-01-25T04:46:08.350Z,8.23
2018-01-25T04:48:01.330Z,8.16
2018-01-25T04:49:01.380Z,8.26
2018-01-25T04:50:54.226Z,8.30
2018-01-25T04:51:54.180Z,8.30
2018-01-25T04:53:47.076Z,8.33
2018-01-25T04:54:46.965Z,8.33
2018-01-25T04:56:39.934Z,8.31
2018-01-25T04:57:39.898Z,8.38
2018-01-25T04:59:32.869Z,8.31
2018-01-25T05:00:32.865Z,8.42
2018-01-25T05:02:25.622Z,8.48
2018-01-25T05:03:25.584Z,8.38
2018-01-25T05:05:18.567Z,8.46
2018-01-25T05:06:18.445Z,8.46
2018-01-25T05:08:11.466Z,8.45
2018-01-25T05:09:11.416Z,8.45
2018-01-25T05:11:04.394Z,8.45
2018-01-25T05:12:04.405Z,8.46
2018-01-25T05:13:57.604Z,8.48
2018-01-25T05:14:57.575Z,8.49
2018-01-25T05:16:50.537Z,8.55
2018-01-25T05:17:50.575Z,8.56
2018-01-25T05:19:43.784Z,8.48
2018-01-25T05:20:43.578Z,8.41
2018-01-25T05:22:36.586Z,8.38
2018-01-25T05:23:36.559Z,8.42
2018-01-25T05:25:29.545Z,8.31
2018-01-25T05:26:29.506Z,8.37
2018-01-25T05:28:22.321Z,8.37
2018-01-25T05:29:22.254Z,8.34
2018-01-25T05:31:15.296Z,8.42
2018-01-25T05:32:15.226Z,8.41
2018-01-25T05:34:08.173Z,8.45
2018-01-25T05:35:08.147Z,8.48
2018-01-25T05:37:01.135Z,8.52
2018-01-25T05:38:01.072Z,8.55
2018-01-25T05:39:53.901Z,8.60
2018-01-25T05:40:53.856Z,8.61
2018-01-25T05:42:46.731Z,8.64
2018-01-25T05:43:46.634Z,8.56
2018-01-25T05:45:39.600Z,8.55
2018-01-25T05:46:39.578Z,8.66
2018-01-25T05:48:32.580Z,8.66
2018-01-25T05:49:32.525Z,8.60
2018-01-25T05:51:25.506Z,8.66
2018-01-25T05:52:25.404Z,8.56
2018-01-25T05:54:18.371Z,8.52
2018-01-25T05:55:18.310Z,8.69
2018-01-25T05:57:11.275Z,8.58
2018-01-25T05:58:11.262Z,8.61
2018-01-25T06:00:04.475Z,8.67
2018-01-25T06:01:04.364Z,8.55
2018-01-25T06:02:57.360Z,8.58
2018-01-25T06:03:57.295Z,8.53
2018-01-25T06:05:50.274Z,8.63
2018-01-25T06:06:50.244Z,8.53
2018-01-25T06:08:43.255Z,8.55
2018-01-25T06:09:43.078Z,8.61
2018-01-25T06:11:36.026Z,8.58
2018-01-25T06:12:35.984Z,8.56
2018-01-25T06:14:28.979Z,8.56
2018-01-25T06:15:28.916Z,8.53
2018-01-25T06:17:22.201Z,8.61
2018-01-25T06:18:22.015Z,8.51
2018-01-25T06:20:14.976Z,8.63
2018-01-25T06:21:14.924Z,8.58
2018-01-25T06:23:07.877Z,8.61
2018-01-25T06:24:07.840Z,8.51
2018-01-25T06:26:01.003Z,8.56
2018-01-25T06:27:00.930Z,8.55
2018-01-25T06:28:53.915Z,8.64
2018-01-25T06:29:53.871Z,8.64
2018-01-25T06:31:46.687Z,8.61
2018-01-25T06:32:46.636Z,8.63
2018-01-25T06:34:39.899Z,8.66
2018-01-25T06:35:39.777Z,8.67
2018-01-25T06:37:32.700Z,8.67
2018-01-25T06:38:32.671Z,8.70
2018-01-25T06:40:25.649Z,8.81
2018-01-25T06:41:25.592Z,8.76
2018-01-25T06:43:18.388Z,8.76
2018-01-25T06:44:18.356Z,8.74
2018-01-25T06:46:11.294Z,8.70
2018-01-25T06:47:11.121Z,8.76
2018-01-25T06:49:04.110Z,8.73
2018-01-25T06:50:04.037Z,8.79
2018-01-25T06:51:56.992Z,8.81
2018-01-25T06:52:56.940Z,8.74
2018-01-25T06:54:50.200Z,8.78
2018-01-25T06:55:50.076Z,8.79
2018-01-25T06:57:43.021Z,8.81
2018-01-25T06:58:42.998Z,8.81
2018-01-25T07:00:35.957Z,8.71
2018-01-25T07:01:35.897Z,8.74
2018-01-25T07:03:29.061Z,8.73
2018-01-25T07:04:29.007Z,8.74
2018-01-25T07:06:21.975Z,8.87
2018-01-25T07:07:21.920Z,8.84
2018-01-25T07:09:14.722Z,8.79
2018-01-25T07:10:14.680Z,8.82
2018-01-25T07:12:07.931Z,8.82
2018-01-25T07:13:07.772Z,8.81
2018-01-25T07:15:00.715Z,8.87
2018-01-25T07:16:00.676Z,8.82
2018-01-25T07:17:53.697Z,8.82
2018-01-25T07:18:53.636Z,8.81
2018-01-25T07:20:46.495Z,8.85
2018-01-25T07:21:46.455Z,8.79
2018-01-25T07:23:39.415Z,8.89
2018-01-25T07:24:39.358Z,8.82
2018-01-25T07:26:32.180Z,8.91
2018-01-25T07:27:32.131Z,8.94
2018-01-25T07:29:25.071Z,8.99
2018-01-25T07:30:25.068Z,8.88
2018-01-25T07:32:18.242Z,8.88
2018-01-25T07:33:18.150Z,8.84
2018-01-25T07:35:10.940Z,8.85
2018-01-25T07:36:10.897Z,8.92
2018-01-25T07:38:03.882Z,8.87
2018-01-25T07:39:03.828Z,8.91
2018-01-25T07:40:57.105Z,8.95
2018-01-25T07:41:56.937Z,8.92
2018-01-25T07:43:49.902Z,9.00
2018-01-25T07:44:49.864Z,8.94
2018-01-25T07:46:42.817Z,8.91
2018-01-25T07:47:42.783Z,8.92
2018-01-25T07:49:35.990Z,8.97
2018-01-25T07:50:35.883Z,9.03
2018-01-25T07:52:28.861Z,8.94
2018-01-25T07:53:28.801Z,8.97
2018-01-25T07:55:21.781Z,8.95
2018-01-25T07:56:21.722Z,8.99
2018-01-25T07:58:14.823Z,9.04
2018-01-25T07:59:14.770Z,9.03
2018-01-25T08:01:07.734Z,8.99
2018-01-25T08:02:07.671Z,9.00
2018-01-25T08:04:00.675Z,9.00
2018-01-25T08:05:00.606Z,9.02
2018-01-25T08:06:53.566Z,9.04
2018-01-25T08:07:53.517Z,9.03
2018-01-25T08:09:46.584Z,9.03
2018-01-25T08:10:46.511Z,9.02
2018-01-25T08:12:39.311Z,8.97
2018-01-25T08:13:39.335Z,9.00
2018-01-25T08:15:32.456Z,8.92
2018-01-25T08:16:32.397Z,9.08
2018-01-25T08:18:25.382Z,9.00
2018-01-25T08:19:25.322Z,9.06
2018-01-25T08:21:18.284Z,8.97
2018-01-25T08:22:18.247Z,9.10
2018-01-25T08:24:11.087Z,9.06
2018-01-25T08:25:11.021Z,9.03
2018-01-25T08:27:03.832Z,9.08
2018-01-25T08:28:03.787Z,9.03
2018-01-25T08:29:56.741Z,9.18
2018-01-25T08:30:56.700Z,9.08
2018-01-25T08:32:49.665Z,9.08
2018-01-25T08:33:49.607Z,9.16
2018-01-25T08:35:42.802Z,9.16
2018-01-25T08:36:42.752Z,9.18
2018-01-25T08:38:35.675Z,9.18
2018-01-25T08:39:35.630Z,9.13
2018-01-25T08:41:33.156Z,9.18
2018-01-25T08:42:28.623Z,9.14
2018-01-25T08:44:21.432Z,9.22
2018-01-25T08:45:21.361Z,9.22
2018-01-25T08:47:14.398Z,9.25
2018-01-25T08:48:14.311Z,9.32
2018-01-25T08:50:07.327Z,9.26
2018-01-25T08:51:07.315Z,9.32
2018-01-25T08:53:00.238Z,9.25
2018-01-25T08:54:00.181Z,9.34
2018-01-25T08:55:53.216Z,9.36
2018-01-25T08:56:53.151Z,9.36
2018-01-25T08:58:46.106Z,9.31
2018-01-25T08:59:46.081Z,9.29
2018-01-25T09:01:39.057Z,9.31
2018-01-25T09:02:38.991Z,9.31
2018-01-25T09:04:32.096Z,9.34
2018-01-25T09:05:32.057Z,9.41
2018-01-25T09:07:25.037Z,9.47
2018-01-25T09:08:25.018Z,9.43
2018-01-25T09:10:17.818Z,9.43
2018-01-25T09:11:17.756Z,9.41
2018-01-25T09:13:10.978Z,9.55
2018-01-25T09:14:10.855Z,9.61
2018-01-25T09:16:03.867Z,9.59
2018-01-25T09:17:03.804Z,9.64
2018-01-25T09:18:56.759Z,9.59
2018-01-25T09:19:56.717Z,9.66
2018-01-25T09:21:49.555Z,9.69
2018-01-25T09:22:49.553Z,9.69
2018-01-25T09:24:42.457Z,9.72
2018-01-25T09:25:42.417Z,9.66
2018-01-25T09:27:35.394Z,9.72
2018-01-25T09:28:35.338Z,9.65
2018-01-25T09:30:28.615Z,9.72
2018-01-25T09:31:28.467Z,9.64
2018-01-25T09:33:21.447Z,9.66
2018-01-25T09:34:21.387Z,9.68
2018-01-25T09:36:14.338Z,9.76
2018-01-25T09:37:14.297Z,9.83
2018-01-25T09:39:07.477Z,9.74
2018-01-25T09:40:07.406Z,9.76
2018-01-25T09:42:00.388Z,9.89
2018-01-25T09:43:00.330Z,9.83
2018-01-25T09:44:53.306Z,9.86
2018-01-25T09:45:53.243Z,9.87
2018-01-25T09:47:46.071Z,9.80
2018-01-25T09:48:46.017Z,9.87
2018-01-25T09:50:39.103Z,9.86
2018-01-25T09:51:39.053Z,9.92
2018-01-25T09:53:32.032Z,9.92
2018-01-25T09:54:32.032Z,9.89
2018-01-25T09:56:25.143Z,9.94
2018-01-25T09:57:25.069Z,9.89
2018-01-25T09:59:18.016Z,9.89
2018-01-25T10:00:17.992Z,9.92
2018-01-25T10:02:10.983Z,9.98
2018-01-25T10:03:10.922Z,9.98
2018-01-25T10:05:04.008Z,10.05
2018-01-25T10:06:03.849Z,9.97
2018-01-25T10:07:56.791Z,10.02
2018-01-25T10:08:56.759Z,9.97
2018-01-25T10:10:49.712Z,9.95
2018-01-25T10:11:49.673Z,9.95
2018-01-25T10:13:42.888Z,9.95
2018-01-25T10:14:42.797Z,9.97
2018-01-25T10:16:35.757Z,9.95
2018-01-25T10:17:35.731Z,9.92
2018-01-25T10:19:28.683Z,9.84
2018-01-25T10:20:28.628Z,9.99
2018-01-25T10:22:21.456Z,9.97
2018-01-25T10:23:21.405Z,9.91
2018-01-25T10:25:14.394Z,10.01
2018-01-25T10:26:14.364Z,9.98
2018-01-25T10:28:07.843Z,9.94
2018-01-25T10:29:07.734Z,10.10
2018-01-25T10:31:00.703Z,10.02
2018-01-25T10:32:00.683Z,10.02
2018-01-25T10:33:53.664Z,9.99
2018-01-25T10:34:53.589Z,10.05
2018-01-25T10:36:46.745Z,10.12
2018-01-25T10:37:46.693Z,10.07
2018-01-25T10:39:39.662Z,10.10
2018-01-25T10:40:39.606Z,10.07
2018-01-25T10:42:32.574Z,10.09
2018-01-25T10:43:32.527Z,10.04
2018-01-25T10:45:25.867Z,10.07
2018-01-25T10:46:25.811Z,10.05
2018-01-25T10:48:18.801Z,10.15
2018-01-25T10:49:18.732Z,10.02
2018-01-25T10:51:11.548Z,10.16
2018-01-25T10:52:11.521Z,10.16
2018-01-25T10:54:04.362Z,10.23
2018-01-25T10:55:04.283Z,10.25
2018-01-25T10:56:57.134Z,10.22
2018-01-25T10:57:57.069Z,10.23
2018-01-25T10:59:50.134Z,10.19
2018-01-25T11:00:50.084Z,10.28
2018-01-25T11:02:42.889Z,10.22
2018-01-25T11:03:42.858Z,10.22
2018-01-25T11:05:36.057Z,10.25
2018-01-25T11:06:35.988Z,10.23
2018-01-25T11:08:28.942Z,10.30
2018-01-25T11:09:28.902Z,10.25
2018-01-25T11:11:21.893Z,10.38
2018-01-25T11:12:21.846Z,10.28
2018-01-25T11:14:14.905Z,10.16
2018-01-25T11:15:14.815Z,10.20
2018-01-25T11:17:07.779Z,10.22
2018-01-25T11:18:07.740Z,10.19
2018-01-25T11:20:00.713Z,10.31
2018-01-25T11:21:00.645Z,10.23
2018-01-25T11:22:53.477Z,10.34
2018-01-25T11:23:53.439Z,10.35
2018-01-25T11:25:46.412Z,10.31
2018-01-25T11:26:46.334Z,10.35
2018-01-25T11:28:39.304Z,10.37
2018-01-25T11:29:39.283Z,10.34
2018-01-25T11:31:32.239Z,10.44
2018-01-25T11:32:32.187Z,10.46
2018-01-25T11:34:25.041Z,10.46
2018-01-25T11:35:24.992Z,10.54
2018-01-25T11:37:17.962Z,10.53
2018-01-25T11:38:17.915Z,10.54
2018-01-25T11:40:10.876Z,10.56
2018-01-25T11:41:10.837Z,10.59
2018-01-25T11:43:04.048Z,10.71
2018-01-25T11:44:03.953Z,10.69
2018-01-25T11:45:56.936Z,10.74
2018-01-25T11:46:56.863Z,10.69
2018-01-25T11:48:49.833Z,10.78
2018-01-25T11:49:49.793Z,10.78
2018-01-25T11:51:42.987Z,10.78
2018-01-25T11:52:42.887Z,10.79
2018-01-25T11:54:35.707Z,10.78
2018-01-25T11:55:35.689Z,10.67
2018-01-25T11:57:28.633Z,10.78
2018-01-25T11:58:28.567Z,10.71
2018-01-25T12:00:21.733Z,10.67
2018-01-25T12:01:21.676Z,10.78
2018-01-25T12:03:14.665Z,10.68
2018-01-25T12:04:14.613Z,10.78
2018-01-25T12:06:07.566Z,10.68
2018-01-25T12:07:07.528Z,10.59
2018-01-25T12:09:00.379Z,10.68
2018-01-25T12:10:00.319Z,10.64
2018-01-25T12:11:53.280Z,10.56
2018-01-25T12:12:53.108Z,10.61
2018-01-25T12:14:46.085Z,10.56
2018-01-25T12:15:46.038Z,10.54
2018-01-25T12:17:38.984Z,10.51
2018-01-25T12:18:38.957Z,10.42
2018-01-25T12:20:32.147Z,10.26
2018-01-25T12:21:32.052Z,10.30
2018-01-25T12:23:25.001Z,10.25
2018-01-25T12:24:24.957Z,10.34
2018-01-25T12:26:17.775Z,10.31
2018-01-25T12:27:17.808Z,10.28
2018-01-25T12:29:11.001Z,10.48
2018-01-25T12:30:10.829Z,10.35
2018-01-25T12:32:03.804Z,10.46
2018-01-25T12:33:03.747Z,10.44
2018-01-25T12:34:56.734Z,10.42
2018-01-25T12:35:56.663Z,10.26
2018-01-25T12:37:49.807Z,10.26
2018-01-25T12:38:49.768Z,10.23
2018-01-25T12:40:42.754Z,10.19
2018-01-25T12:41:42.693Z,10.31
2018-01-25T12:43:35.661Z,10.30
2018-01-25T12:44:35.616Z,10.34
2018-01-25T12:46:28.513Z,10.28
2018-01-25T12:47:28.458Z,10.30
2018-01-25T12:49:21.397Z,10.26
2018-01-25T12:50:21.362Z,10.30
2018-01-25T12:52:14.206Z,10.30
2018-01-25T12:53:14.136Z,10.40
2018-01-25T12:55:07.088Z,10.44
2018-01-25T12:56:07.062Z,10.40
2018-01-25T12:57:59.892Z,10.31
2018-01-25T12:58:59.822Z,10.37
2018-01-25T13:00:52.847Z,10.38
2018-01-25T13:01:52.763Z,10.41
2018-01-25T13:03:45.879Z,10.46
2018-01-25T13:04:45.855Z,10.46
2018-01-25T13:06:39.062Z,10.46
2018-01-25T13:07:39.012Z,10.56
2018-01-25T13:09:31.810Z,10.59
2018-01-25T13:10:31.779Z,10.68
2018-01-25T13:12:24.754Z,10.56
2018-01-25T13:13:24.694Z,10.49
2018-01-25T13:15:17.853Z,10.59
2018-01-25T13:16:17.816Z,10.61
2018-01-25T13:18:10.793Z,10.67
2018-01-25T13:19:10.731Z,10.59
2018-01-25T13:21:03.686Z,10.64
2018-01-25T13:22:03.660Z,10.59
2018-01-25T13:23:56.773Z,10.61
2018-01-25T13:24:56.734Z,10.63
2018-01-25T13:26:49.683Z,10.63
2018-01-25T13:27:49.741Z,10.61
2018-01-25T13:29:42.653Z,10.68
2018-01-25T13:30:42.554Z,10.69
2018-01-25T13:32:35.388Z,10.68
2018-01-25T13:33:35.352Z,10.72
2018-01-25T13:35:28.332Z,10.63
2018-01-25T13:36:28.268Z,10.64
2018-01-25T13:38:21.234Z,10.61
2018-01-25T13:39:21.195Z,10.68
2018-01-25T13:41:14.411Z,10.64
2018-01-25T13:42:14.304Z,10.61
2018-01-25T13:44:07.432Z,10.56
2018-01-25T13:45:07.362Z,10.49
2018-01-25T13:47:00.309Z,10.56
2018-01-25T13:48:00.280Z,10.54
2018-01-25T13:49:53.164Z,10.57
2018-01-25T13:50:53.095Z,10.63
2018-01-25T13:52:46.046Z,10.59
2018-01-25T13:53:46.013Z,10.59
2018-01-25T13:55:38.996Z,10.59
2018-01-25T13:56:38.945Z,10.60
2018-01-25T13:58:32.121Z,10.54
2018-01-25T13:59:32.038Z,10.59
2018-01-25T14:01:25.006Z,10.64
2018-01-25T14:02:24.948Z,10.63
2018-01-25T14:04:17.956Z,10.67
2018-01-25T14:05:17.928Z,10.64
2018-01-25T14:07:10.849Z,10.68
2018-01-25T14:08:10.779Z,10.61
2018-01-25T14:10:03.770Z,10.64
2018-01-25T14:11:03.749Z,10.67
2018-01-25T14:12:56.686Z,10.61
2018-01-25T14:13:56.674Z,10.60
2018-01-25T14:15:49.809Z,10.61
2018-01-25T14:16:49.710Z,10.59
2018-01-25T14:18:42.649Z,10.61
2018-01-25T14:19:42.629Z,10.64
2018-01-25T14:21:35.584Z,10.67
2018-01-25T14:22:35.532Z,10.69
2018-01-25T14:24:28.701Z,10.61
2018-01-25T14:25:28.645Z,10.61
2018-01-25T14:27:21.624Z,10.64
2018-01-25T14:28:21.569Z,10.63
2018-01-25T14:30:14.514Z,10.64
2018-01-25T14:31:14.481Z,10.64
2018-01-25T14:33:07.604Z,10.64
2018-01-25T14:34:07.535Z,10.60
2018-01-25T14:36:00.494Z,10.67
2018-01-25T14:37:00.454Z,10.56
2018-01-25T14:38:53.429Z,10.59
2018-01-25T14:39:53.374Z,10.64
2018-01-25T14:41:46.415Z,10.56
2018-01-25T14:42:46.242Z,10.51
2018-01-25T14:44:39.226Z,10.41
2018-01-25T14:45:39.175Z,10.42
2018-01-25T14:47:32.145Z,10.44
2018-01-25T14:48:32.099Z,10.41
2018-01-25T14:50:25.249Z,10.42
2018-01-25T14:51:25.205Z,10.41
2018-01-25T14:53:18.154Z,10.35
2018-01-25T14:54:18.108Z,10.31
2018-01-25T14:56:11.091Z,10.41
2018-01-25T14:57:11.060Z,10.40
2018-01-25T14:59:04.219Z,10.35
2018-01-25T15:00:04.108Z,10.38
2018-01-25T15:01:57.054Z,10.35
2018-01-25T15:02:57.019Z,10.31
2018-01-25T15:04:50.011Z,10.33
2018-01-25T15:05:49.928Z,10.30
2018-01-25T15:07:42.830Z,10.26
2018-01-25T15:08:42.789Z,10.22
2018-01-25T15:10:35.661Z,10.19
2018-01-25T15:11:35.543Z,10.22
2018-01-25T15:13:28.504Z,10.23
2018-01-25T15:14:28.479Z,10.26
2018-01-25T15:16:21.443Z,10.17
2018-01-25T15:17:21.395Z,10.16
2018-01-25T15:19:14.235Z,10.25
2018-01-25T15:20:14.195Z,10.20
2018-01-25T15:22:07.510Z,10.22
2018-01-25T15:23:07.594Z,10.20
2018-01-25T15:25:00.584Z,10.10
2018-01-25T15:26:00.552Z,10.05
2018-01-25T15:27:53.530Z,10.12
2018-01-25T15:28:53.495Z,10.07
2018-01-25T15:30:46.422Z,9.99
2018-01-25T15:31:46.388Z,10.02
2018-01-25T15:33:39.610Z,10.05
2018-01-25T15:34:39.525Z,9.94
2018-01-25T15:36:32.491Z,10.07
2018-01-25T15:37:32.445Z,9.95
2018-01-25T15:39:25.383Z,9.98
2018-01-25T15:40:25.344Z,9.97
2018-01-25T15:42:18.195Z,9.83
2018-01-25T15:43:18.141Z,9.82
2018-01-25T15:45:11.097Z,9.77
2018-01-25T15:46:11.069Z,9.76
2018-01-25T15:48:03.895Z,9.73
2018-01-25T15:49:03.832Z,9.76
2018-01-25T15:50:56.803Z,9.74
2018-01-25T15:51:56.750Z,9.65
2018-01-25T15:53:49.950Z,9.66
2018-01-25T15:54:49.860Z,9.72
2018-01-25T15:56:42.835Z,9.72
2018-01-25T15:57:42.792Z,9.72
2018-01-25T15:59:35.754Z,9.72
2018-01-25T16:00:35.700Z,9.58
2018-01-25T16:02:28.535Z,9.62
2018-01-25T16:03:28.469Z,9.64
2018-01-25T16:05:21.593Z,9.62
2018-01-25T16:06:21.557Z,9.58
2018-01-25T16:08:14.520Z,9.61
2018-01-25T16:09:14.460Z,9.55
2018-01-25T16:11:07.591Z,9.48
2018-01-25T16:12:07.575Z,9.54
2018-01-25T16:14:00.539Z,9.56
2018-01-25T16:15:00.503Z,9.48
2018-01-25T16:16:53.818Z,9.50
2018-01-25T16:17:53.780Z,9.44
2018-01-25T16:19:46.770Z,9.44
2018-01-25T16:20:46.710Z,9.41
2018-01-25T16:22:39.743Z,9.44
2018-01-25T16:23:39.636Z,9.43
2018-01-25T16:25:32.728Z,9.31
2018-01-25T16:26:32.674Z,9.29
2018-01-25T16:28:25.801Z,9.29
2018-01-25T16:29:25.810Z,9.37
2018-01-25T16:31:18.919Z,9.31
2018-01-25T16:32:18.849Z,9.36
2018-01-25T16:34:11.670Z,9.31
2018-01-25T16:35:11.612Z,9.25
2018-01-25T16:37:04.580Z,9.34
2018-01-25T16:38:04.536Z,9.36
2018-01-25T16:39:57.756Z,9.29
2018-01-25T16:40:57.625Z,9.36
2018-01-25T16:42:50.576Z,9.31
2018-01-25T16:43:50.541Z,9.13
2018-01-25T16:45:43.556Z,9.11
2018-01-25T16:46:43.495Z,9.02
2018-01-25T16:48:36.624Z,8.82
2018-01-25T16:49:36.489Z,8.71
2018-01-25T16:51:29.486Z,8.81
2018-01-25T16:52:29.415Z,8.82
2018-01-25T16:54:22.360Z,8.81
2018-01-25T16:55:22.324Z,8.82
2018-01-25T16:57:15.531Z,8.82
2018-01-25T16:58:15.419Z,8.82
2018-01-25T17:00:08.392Z,8.81
2018-01-25T17:01:08.346Z,8.76
2018-01-25T17:03:01.296Z,8.76
2018-01-25T17:04:01.272Z,8.64
2018-01-25T17:05:54.099Z,8.70
2018-01-25T17:06:54.040Z,8.67
2018-01-25T17:08:47.126Z,8.69
2018-01-25T17:09:47.102Z,8.67
2018-01-25T17:11:40.077Z,8.63
2018-01-25T17:12:40.022Z,8.60
2018-01-25T17:14:33.219Z,8.58
2018-01-25T17:15:33.114Z,8.66
2018-01-25T17:17:26.124Z,8.66
2018-01-25T17:18:26.077Z,8.64
2018-01-25T17:20:19.037Z,8.60
2018-01-25T17:21:18.980Z,8.69
2018-01-25T17:23:11.816Z,8.55
2018-01-25T17:24:11.762Z,8.55
2018-01-25T17:26:04.704Z,8.58
2018-01-25T17:27:04.686Z,8.56
2018-01-25T17:28:57.625Z,8.55
2018-01-25T17:29:57.577Z,8.51
2018-01-25T17:31:50.397Z,8.46
2018-01-25T17:32:50.360Z,8.44
2018-01-25T17:34:43.151Z,8.42
2018-01-25T17:35:43.121Z,8.45
2018-01-25T17:37:36.146Z,8.45
2018-01-25T17:38:35.955Z,8.46
2018-01-25T17:40:28.902Z,8.48
2018-01-25T17:41:28.870Z,8.49
2018-01-25T17:43:21.874Z,8.46
2018-01-25T17:44:21.763Z,8.55
2018-01-25T17:46:14.964Z,8.46
2018-01-25T17:47:14.934Z,8.49
2018-01-25T17:49:07.860Z,8.42
2018-01-25T17:50:07.822Z,8.44
2018-01-25T17:52:00.771Z,8.42
2018-01-25T17:53:00.715Z,8.38
2018-01-25T17:54:53.906Z,8.46
2018-01-25T17:55:53.800Z,8.48
2018-01-25T17:57:46.751Z,8.45
2018-01-25T17:58:46.720Z,8.42
2018-01-25T18:00:39.669Z,8.44
2018-01-25T18:01:39.621Z,8.45
2018-01-25T18:03:32.460Z,8.45
2018-01-25T18:04:32.386Z,8.53
2018-01-25T18:06:25.355Z,8.36
2018-01-25T18:07:25.294Z,8.44
2018-01-25T18:09:18.249Z,8.41
2018-01-25T18:10:18.206Z,8.37
2018-01-25T18:12:11.071Z,8.42
2018-01-25T18:13:10.975Z,8.37
2018-01-25T18:15:04.247Z,8.38
2018-01-25T18:16:04.124Z,8.42
2018-01-25T18:17:57.098Z,8.41
2018-01-25T18:18:57.037Z,8.41
2018-01-25T18:20:50.030Z,8.48
2018-01-25T18:21:49.948Z,8.44
2018-01-25T18:23:42.827Z,8.41
2018-01-25T18:24:42.802Z,8.41
2018-01-25T18:26:35.775Z,8.37
2018-01-25T18:27:35.772Z,8.46
2018-01-25T18:29:28.646Z,8.37
2018-01-25T18:30:28.622Z,8.44
2018-01-25T18:32:21.570Z,8.45
2018-01-25T18:33:21.545Z,8.56
2018-01-25T18:35:14.412Z,8.44
2018-01-25T18:36:14.284Z,8.44
2018-01-25T18:38:07.357Z,8.41
2018-01-25T18:39:07.206Z,8.46
2018-01-25T18:41:00.140Z,8.45
2018-01-25T18:42:00.098Z,8.36
2018-01-25T18:43:53.067Z,8.37
2018-01-25T18:44:53.029Z,8.31
2018-01-25T18:46:45.958Z,8.31
2018-01-25T18:47:45.822Z,8.44
2018-01-25T18:49:38.780Z,8.31
2018-01-25T18:50:38.716Z,8.36
2018-01-25T18:52:31.541Z,8.45
2018-01-25T18:53:31.496Z,8.36
2018-01-25T18:55:24.486Z,8.38
2018-01-25T18:56:24.422Z,8.41
2018-01-25T18:58:17.249Z,8.38